sensor_id;sensor_type;location;lat;lon;timestamp;noise_LAeq;noise_LA_min;noise_LA_max;noise_LA01;noise_LA95
69620;Laerm;57654;51.434;5.984;2023-04-01T00:00:07;36.54;34.72;41.54;;
69620;Laerm;57654;51.434;5.984;2023-04-01T00:00:19;36.41;34.50;41.63;;
69620;Laerm;57654;51.434;5.984;2023-04-01T00:00:30;36.97;34.18;40.95;;
69620;Laerm;57654;51.434;5.984;2023-04-01T00:00:40;37.53;35.01;40.59;;
69620;Laerm;57654;51.434;5.984;2023-04-01T00:00:54;38.64;37.00;40.82;;
69620;Laerm;57654;51.434;5.984;2023-04-01T00:01:05;37.21;34.65;42.86;;
69620;Laerm;57654;51.434;5.984;2023-04-01T00:01:16;37.33;34.90;42.79;;
69620;Laerm;57654;51.434;5.984;2023-04-01T00:01:26;37.34;34.51;47.60;;
69620;Laerm;57654;51.434;5.984;2023-04-01T00:01:36;36.77;34.55;39.83;;
69620;Laerm;57654;51.434;5.984;2023-04-01T00:01:46;37.28;35.27;39.80;;
69620;Laerm;57654;51.434;5.984;2023-04-01T00:01:57;37.16;34.71;43.91;;
69620;Laerm;57654;51.434;5.984;2023-04-01T00:02:07;37.04;35.30;42.10;;
69620;Laerm;57654;51.434;5.984;2023-04-01T00:02:17;37.35;35.24;40.42;;
69620;Laerm;57654;51.434;5.984;2023-04-01T00:02:28;37.13;35.17;40.09;;
69620;Laerm;57654;51.434;5.984;2023-04-01T00:02:38;38.93;36.39;43.80;;
69620;Laerm;57654;51.434;5.984;2023-04-01T00:02:48;38.69;36.69;43.40;;
69620;Laerm;57654;51.434;5.984;2023-04-01T00:02:59;39.70;36.54;42.67;;
69620;Laerm;57654;51.434;5.984;2023-04-01T00:03:10;41.61;38.68;44.01;;
69620;Laerm;57654;51.434;5.984;2023-04-01T00:03:20;43.69;41.34;46.94;;
69620;Laerm;57654;51.434;5.984;2023-04-01T00:03:31;43.63;40.34;46.28;;
69620;Laerm;57654;51.434;5.984;2023-04-01T00:03:43;40.96;39.38;44.26;;
69620;Laerm;57654;51.434;5.984;2023-04-01T00:03:53;40.23;37.96;48.96;;
69620;Laerm;57654;51.434;5.984;2023-04-01T00:04:04;40.14;38.59;43.12;;
69620;Laerm;57654;51.434;5.984;2023-04-01T00:04:15;40.15;38.02;44.37;;
69620;Laerm;57654;51.434;5.984;2023-04-01T00:04:25;40.95;38.16;47.63;;
69620;Laerm;57654;51.434;5.984;2023-04-01T00:04:36;40.69;38.70;42.80;;
69620;Laerm;57654;51.434;5.984;2023-04-01T00:04:46;39.49;37.32;46.96;;
69620;Laerm;57654;51.434;5.984;2023-04-01T00:04:56;38.84;36.82;47.77;;
69620;Laerm;57654;51.434;5.984;2023-04-01T00:05:06;38.09;36.18;43.56;;
69620;Laerm;57654;51.434;5.984;2023-04-01T00:05:17;38.20;36.38;43.02;;
69620;Laerm;57654;51.434;5.984;2023-04-01T00:05:27;37.86;35.84;46.20;;
69620;Laerm;57654;51.434;5.984;2023-04-01T00:05:38;37.56;35.22;44.77;;
69620;Laerm;57654;51.434;5.984;2023-04-01T00:05:48;37.27;34.99;43.74;;
69620;Laerm;57654;51.434;5.984;2023-04-01T00:05:59;37.85;35.66;40.20;;
69620;Laerm;57654;51.434;5.984;2023-04-01T00:06:11;37.14;34.76;41.86;;
69620;Laerm;57654;51.434;5.984;2023-04-01T00:06:22;36.08;34.04;41.78;;
69620;Laerm;57654;51.434;5.984;2023-04-01T00:06:33;35.99;33.77;43.07;;
69620;Laerm;57654;51.434;5.984;2023-04-01T00:06:43;36.69;34.10;43.31;;
69620;Laerm;57654;51.434;5.984;2023-04-01T00:06:53;35.96;33.73;41.32;;
69620;Laerm;57654;51.434;5.984;2023-04-01T00:07:03;35.59;32.49;40.27;;
69620;Laerm;57654;51.434;5.984;2023-04-01T00:07:14;35.57;32.88;40.37;;
69620;Laerm;57654;51.434;5.984;2023-04-01T00:07:24;35.69;33.21;42.23;;
69620;Laerm;57654;51.434;5.984;2023-04-01T00:07:34;35.26;33.00;39.49;;
69620;Laerm;57654;51.434;5.984;2023-04-01T00:07:45;35.48;32.85;40.48;;
69620;Laerm;57654;51.434;5.984;2023-04-01T00:07:55;35.34;32.85;44.29;;
69620;Laerm;57654;51.434;5.984;2023-04-01T00:08:06;36.60;33.65;40.16;;
69620;Laerm;57654;51.434;5.984;2023-04-01T00:08:16;36.98;34.99;40.13;;
69620;Laerm;57654;51.434;5.984;2023-04-01T00:08:26;36.60;33.97;40.47;;
69620;Laerm;57654;51.434;5.984;2023-04-01T00:08:36;45.40;34.76;53.04;;
69620;Laerm;57654;51.434;5.984;2023-04-01T00:08:47;52.05;48.89;53.82;;
69620;Laerm;57654;51.434;5.984;2023-04-01T00:08:57;53.61;50.75;55.51;;
69620;Laerm;57654;51.434;5.984;2023-04-01T00:09:07;47.31;39.98;51.74;;
69620;Laerm;57654;51.434;5.984;2023-04-01T00:09:18;39.18;36.39;42.02;;
69620;Laerm;57654;51.434;5.984;2023-04-01T00:09:28;36.81;34.95;41.17;;
69620;Laerm;57654;51.434;5.984;2023-04-01T00:09:38;36.60;33.99;42.54;;
69620;Laerm;57654;51.434;5.984;2023-04-01T00:09:48;36.90;34.20;40.20;;
69620;Laerm;57654;51.434;5.984;2023-04-01T00:09:59;38.47;35.40;42.19;;
69620;Laerm;57654;51.434;5.984;2023-04-01T00:10:10;39.81;37.62;43.00;;
69620;Laerm;57654;51.434;5.984;2023-04-01T00:10:20;39.50;37.66;43.21;;
69620;Laerm;57654;51.434;5.984;2023-04-01T00:10:31;38.64;36.75;42.78;;
69620;Laerm;57654;51.434;5.984;2023-04-01T00:10:41;38.05;36.08;41.06;;
69620;Laerm;57654;51.434;5.984;2023-04-01T00:10:51;37.80;35.93;40.97;;
69620;Laerm;57654;51.434;5.984;2023-04-01T00:11:02;38.81;36.30;41.54;;
69620;Laerm;57654;51.434;5.984;2023-04-01T00:11:12;37.36;34.98;40.21;;
69620;Laerm;57654;51.434;5.984;2023-04-01T00:11:23;35.98;33.94;40.91;;
69620;Laerm;57654;51.434;5.984;2023-04-01T00:11:33;35.73;33.07;41.45;;
69620;Laerm;57654;51.434;5.984;2023-04-01T00:11:43;36.33;33.94;40.18;;
69620;Laerm;57654;51.434;5.984;2023-04-01T00:11:55;39.43;37.09;43.66;;
69620;Laerm;57654;51.434;5.984;2023-04-01T00:12:05;38.94;36.52;43.40;;
69620;Laerm;57654;51.434;5.984;2023-04-01T00:12:16;38.95;36.88;42.27;;
69620;Laerm;57654;51.434;5.984;2023-04-01T00:12:26;41.83;39.43;44.62;;
69620;Laerm;57654;51.434;5.984;2023-04-01T00:12:37;39.91;37.42;43.19;;
69620;Laerm;57654;51.434;5.984;2023-04-01T00:12:47;38.27;35.24;42.74;;
69620;Laerm;57654;51.434;5.984;2023-04-01T00:12:58;37.29;35.29;43.10;;
69620;Laerm;57654;51.434;5.984;2023-04-01T00:13:08;39.04;36.83;42.56;;
69620;Laerm;57654;51.434;5.984;2023-04-01T00:13:19;46.72;39.45;50.46;;
69620;Laerm;57654;51.434;5.984;2023-04-01T00:13:29;48.81;46.95;57.41;;
69620;Laerm;57654;51.434;5.984;2023-04-01T00:13:40;47.39;41.92;50.53;;
69620;Laerm;57654;51.434;5.984;2023-04-01T00:13:50;42.07;38.42;46.29;;
69620;Laerm;57654;51.434;5.984;2023-04-01T00:14:01;46.84;43.85;48.71;;
69620;Laerm;57654;51.434;5.984;2023-04-01T00:14:11;46.99;45.09;48.47;;
69620;Laerm;57654;51.434;5.984;2023-04-01T00:14:21;44.52;39.19;48.00;;
69620;Laerm;57654;51.434;5.984;2023-04-01T00:14:31;38.78;36.10;46.33;;
69620;Laerm;57654;51.434;5.984;2023-04-01T00:14:42;37.91;35.37;41.53;;
69620;Laerm;57654;51.434;5.984;2023-04-01T00:14:52;39.27;37.15;42.10;;
69620;Laerm;57654;51.434;5.984;2023-04-01T00:15:03;37.18;34.73;41.28;;
69620;Laerm;57654;51.434;5.984;2023-04-01T00:15:13;37.22;34.98;40.07;;
69620;Laerm;57654;51.434;5.984;2023-04-01T00:15:23;40.35;37.22;45.08;;
69620;Laerm;57654;51.434;5.984;2023-04-01T00:15:34;41.16;39.25;45.34;;
69620;Laerm;57654;51.434;5.984;2023-04-01T00:15:44;39.33;36.92;43.03;;
69620;Laerm;57654;51.434;5.984;2023-04-01T00:15:55;38.61;36.44;40.88;;
69620;Laerm;57654;51.434;5.984;2023-04-01T00:16:05;38.75;36.63;40.86;;
69620;Laerm;57654;51.434;5.984;2023-04-01T00:16:16;37.47;34.81;41.83;;
69620;Laerm;57654;51.434;5.984;2023-04-01T00:16:26;38.30;36.16;43.72;;
69620;Laerm;57654;51.434;5.984;2023-04-01T00:16:36;39.93;36.35;44.27;;
69620;Laerm;57654;51.434;5.984;2023-04-01T00:16:47;41.15;39.39;43.34;;
69620;Laerm;57654;51.434;5.984;2023-04-01T00:16:57;41.55;39.96;43.58;;
69620;Laerm;57654;51.434;5.984;2023-04-01T00:17:07;41.76;38.94;44.93;;
69620;Laerm;57654;51.434;5.984;2023-04-01T00:17:17;40.04;37.68;43.96;;
69620;Laerm;57654;51.434;5.984;2023-04-01T00:17:27;37.60;35.18;42.37;;
69620;Laerm;57654;51.434;5.984;2023-04-01T00:17:38;36.45;34.68;42.27;;
69620;Laerm;57654;51.434;5.984;2023-04-01T00:17:48;36.17;34.08;42.83;;
69620;Laerm;57654;51.434;5.984;2023-04-01T00:17:59;36.01;33.84;38.74;;
69620;Laerm;57654;51.434;5.984;2023-04-01T00:18:10;37.33;34.43;40.43;;
69620;Laerm;57654;51.434;5.984;2023-04-01T00:18:21;37.45;34.85;40.33;;
69620;Laerm;57654;51.434;5.984;2023-04-01T00:18:31;36.17;33.24;41.07;;
69620;Laerm;57654;51.434;5.984;2023-04-01T00:18:41;35.30;32.99;41.12;;
69620;Laerm;57654;51.434;5.984;2023-04-01T00:18:52;39.59;35.56;45.44;;
69620;Laerm;57654;51.434;5.984;2023-04-01T00:19:02;39.25;36.41;44.65;;
69620;Laerm;57654;51.434;5.984;2023-04-01T00:19:12;38.44;35.90;40.96;;
69620;Laerm;57654;51.434;5.984;2023-04-01T00:19:23;38.64;35.94;40.44;;
69620;Laerm;57654;51.434;5.984;2023-04-01T00:19:33;37.48;35.34;40.51;;
69620;Laerm;57654;51.434;5.984;2023-04-01T00:19:43;37.39;33.81;47.05;;
69620;Laerm;57654;51.434;5.984;2023-04-01T00:19:57;36.31;34.06;46.57;;
69620;Laerm;57654;51.434;5.984;2023-04-01T00:20:07;36.17;33.07;41.34;;
69620;Laerm;57654;51.434;5.984;2023-04-01T00:20:18;36.68;35.01;39.82;;
69620;Laerm;57654;51.434;5.984;2023-04-01T00:20:28;37.13;34.59;43.17;;
69620;Laerm;57654;51.434;5.984;2023-04-01T00:20:38;37.22;35.04;41.36;;
69620;Laerm;57654;51.434;5.984;2023-04-01T00:20:52;38.04;35.91;41.84;;
69620;Laerm;57654;51.434;5.984;2023-04-01T00:21:02;38.12;35.71;41.27;;
69620;Laerm;57654;51.434;5.984;2023-04-01T00:21:13;36.75;34.30;39.95;;
69620;Laerm;57654;51.434;5.984;2023-04-01T00:21:23;36.31;33.97;39.28;;
69620;Laerm;57654;51.434;5.984;2023-04-01T00:21:34;36.25;33.61;46.01;;
69620;Laerm;57654;51.434;5.984;2023-04-01T00:21:44;35.95;33.27;40.11;;
69620;Laerm;57654;51.434;5.984;2023-04-01T00:21:54;35.54;32.76;40.36;;
69620;Laerm;57654;51.434;5.984;2023-04-01T00:22:05;35.37;33.08;40.73;;
69620;Laerm;57654;51.434;5.984;2023-04-01T00:22:16;35.30;32.93;39.04;;
69620;Laerm;57654;51.434;5.984;2023-04-01T00:22:26;36.02;33.62;39.27;;
69620;Laerm;57654;51.434;5.984;2023-04-01T00:22:37;36.81;34.05;43.39;;
69620;Laerm;57654;51.434;5.984;2023-04-01T00:22:47;35.43;33.19;39.84;;
69620;Laerm;57654;51.434;5.984;2023-04-01T00:22:57;36.59;33.96;42.98;;
69620;Laerm;57654;51.434;5.984;2023-04-01T00:23:08;39.67;36.60;45.75;;
69620;Laerm;57654;51.434;5.984;2023-04-01T00:23:18;49.14;40.64;52.35;;
69620;Laerm;57654;51.434;5.984;2023-04-01T00:23:29;48.31;46.05;51.55;;
69620;Laerm;57654;51.434;5.984;2023-04-01T00:23:39;46.01;42.84;48.06;;
69620;Laerm;57654;51.434;5.984;2023-04-01T00:23:50;39.44;33.65;44.24;;
69620;Laerm;57654;51.434;5.984;2023-04-01T00:24:00;35.72;33.17;42.07;;
69620;Laerm;57654;51.434;5.984;2023-04-01T00:24:11;36.45;34.17;42.31;;
69620;Laerm;57654;51.434;5.984;2023-04-01T00:24:21;37.26;34.71;40.41;;
69620;Laerm;57654;51.434;5.984;2023-04-01T00:24:31;38.09;34.99;40.86;;
69620;Laerm;57654;51.434;5.984;2023-04-01T00:24:42;41.32;38.89;45.06;;
69620;Laerm;57654;51.434;5.984;2023-04-01T00:24:52;43.13;41.14;44.81;;
69620;Laerm;57654;51.434;5.984;2023-04-01T00:25:03;41.88;39.23;45.34;;
69620;Laerm;57654;51.434;5.984;2023-04-01T00:25:14;38.88;36.38;44.42;;
69620;Laerm;57654;51.434;5.984;2023-04-01T00:25:25;37.95;35.59;43.15;;
69620;Laerm;57654;51.434;5.984;2023-04-01T00:25:35;36.29;34.48;39.78;;
69620;Laerm;57654;51.434;5.984;2023-04-01T00:25:45;36.37;34.55;39.32;;
69620;Laerm;57654;51.434;5.984;2023-04-01T00:25:59;36.92;34.26;40.02;;
69620;Laerm;57654;51.434;5.984;2023-04-01T00:26:11;36.65;33.73;40.48;;
69620;Laerm;57654;51.434;5.984;2023-04-01T00:26:22;35.82;33.33;40.04;;
69620;Laerm;57654;51.434;5.984;2023-04-01T00:26:32;36.62;34.76;39.53;;
69620;Laerm;57654;51.434;5.984;2023-04-01T00:26:42;36.86;34.48;39.98;;
69620;Laerm;57654;51.434;5.984;2023-04-01T00:26:54;37.69;34.51;46.06;;
69620;Laerm;57654;51.434;5.984;2023-04-01T00:27:04;37.18;35.09;45.21;;
69620;Laerm;57654;51.434;5.984;2023-04-01T00:27:15;37.37;35.63;40.76;;
69620;Laerm;57654;51.434;5.984;2023-04-01T00:27:25;37.34;35.62;43.75;;
69620;Laerm;57654;51.434;5.984;2023-04-01T00:27:36;37.25;35.04;43.60;;
69620;Laerm;57654;51.434;5.984;2023-04-01T00:27:46;36.94;34.91;42.15;;
69620;Laerm;57654;51.434;5.984;2023-04-01T00:27:56;38.36;36.08;41.80;;
69620;Laerm;57654;51.434;5.984;2023-04-01T00:28:07;45.90;38.82;50.35;;
69620;Laerm;57654;51.434;5.984;2023-04-01T00:28:18;50.32;48.80;52.70;;
69620;Laerm;57654;51.434;5.984;2023-04-01T00:28:28;49.97;45.56;52.34;;
69620;Laerm;57654;51.434;5.984;2023-04-01T00:28:39;41.27;36.56;47.47;;
69620;Laerm;57654;51.434;5.984;2023-04-01T00:28:49;37.64;34.90;42.63;;
69620;Laerm;57654;51.434;5.984;2023-04-01T00:29:00;37.12;34.69;40.61;;
69620;Laerm;57654;51.434;5.984;2023-04-01T00:29:11;37.06;34.76;41.05;;
69620;Laerm;57654;51.434;5.984;2023-04-01T00:29:21;37.85;35.62;43.50;;
69620;Laerm;57654;51.434;5.984;2023-04-01T00:29:31;40.21;38.01;44.92;;
69620;Laerm;57654;51.434;5.984;2023-04-01T00:29:43;39.93;37.81;43.87;;
69620;Laerm;57654;51.434;5.984;2023-04-01T00:29:53;39.44;37.35;44.08;;
69620;Laerm;57654;51.434;5.984;2023-04-01T00:30:04;38.17;36.18;44.32;;
69620;Laerm;57654;51.434;5.984;2023-04-01T00:30:14;38.37;36.28;43.98;;
69620;Laerm;57654;51.434;5.984;2023-04-01T00:30:25;37.71;35.83;41.63;;
69620;Laerm;57654;51.434;5.984;2023-04-01T00:30:35;39.05;36.82;44.31;;
69620;Laerm;57654;51.434;5.984;2023-04-01T00:30:46;38.33;35.99;41.13;;
69620;Laerm;57654;51.434;5.984;2023-04-01T00:30:57;38.64;36.83;41.59;;
69620;Laerm;57654;51.434;5.984;2023-04-01T00:31:07;38.40;36.08;50.53;;
69620;Laerm;57654;51.434;5.984;2023-04-01T00:31:18;38.33;36.25;42.77;;
69620;Laerm;57654;51.434;5.984;2023-04-01T00:31:29;40.04;37.06;43.89;;
69620;Laerm;57654;51.434;5.984;2023-04-01T00:31:40;39.80;37.80;42.18;;
69620;Laerm;57654;51.434;5.984;2023-04-01T00:31:50;45.00;39.11;50.27;;
69620;Laerm;57654;51.434;5.984;2023-04-01T00:32:00;48.17;45.37;50.67;;
69620;Laerm;57654;51.434;5.984;2023-04-01T00:32:11;47.49;44.43;50.50;;
69620;Laerm;57654;51.434;5.984;2023-04-01T00:32:21;42.17;37.13;46.02;;
69620;Laerm;57654;51.434;5.984;2023-04-01T00:32:32;39.07;36.56;48.16;;
69620;Laerm;57654;51.434;5.984;2023-04-01T00:32:42;40.57;37.00;43.92;;
69620;Laerm;57654;51.434;5.984;2023-04-01T00:32:52;38.98;36.21;42.06;;
69620;Laerm;57654;51.434;5.984;2023-04-01T00:33:03;38.91;36.18;41.63;;
69620;Laerm;57654;51.434;5.984;2023-04-01T00:33:13;39.18;37.30;50.60;;
69620;Laerm;57654;51.434;5.984;2023-04-01T00:33:24;38.10;35.42;41.07;;
69620;Laerm;57654;51.434;5.984;2023-04-01T00:33:34;36.62;34.47;41.33;;
69620;Laerm;57654;51.434;5.984;2023-04-01T00:33:45;38.84;35.23;41.88;;
69620;Laerm;57654;51.434;5.984;2023-04-01T00:33:56;41.02;38.98;44.83;;
69620;Laerm;57654;51.434;5.984;2023-04-01T00:34:06;43.17;41.33;45.34;;
69620;Laerm;57654;51.434;5.984;2023-04-01T00:34:16;42.81;40.14;54.44;;
69620;Laerm;57654;51.434;5.984;2023-04-01T00:34:27;41.83;40.04;44.62;;
69620;Laerm;57654;51.434;5.984;2023-04-01T00:34:37;45.69;42.62;48.67;;
69620;Laerm;57654;51.434;5.984;2023-04-01T00:34:50;45.66;41.55;48.49;;
69620;Laerm;57654;51.434;5.984;2023-04-01T00:35:00;41.09;38.03;43.58;;
69620;Laerm;57654;51.434;5.984;2023-04-01T00:35:11;39.81;38.10;46.71;;
69620;Laerm;57654;51.434;5.984;2023-04-01T00:35:22;39.10;37.02;42.09;;
69620;Laerm;57654;51.434;5.984;2023-04-01T00:35:32;38.39;35.73;41.36;;
69620;Laerm;57654;51.434;5.984;2023-04-01T00:35:43;39.22;37.44;41.79;;
69620;Laerm;57654;51.434;5.984;2023-04-01T00:35:53;40.05;38.07;43.93;;
69620;Laerm;57654;51.434;5.984;2023-04-01T00:36:07;38.28;36.09;42.98;;
69620;Laerm;57654;51.434;5.984;2023-04-01T00:36:20;37.09;34.42;41.12;;
69620;Laerm;57654;51.434;5.984;2023-04-01T00:36:31;38.24;36.12;41.97;;
69620;Laerm;57654;51.434;5.984;2023-04-01T00:36:41;43.22;36.97;49.33;;
69620;Laerm;57654;51.434;5.984;2023-04-01T00:36:52;50.23;46.34;52.09;;
69620;Laerm;57654;51.434;5.984;2023-04-01T00:37:02;49.42;44.66;51.89;;
69620;Laerm;57654;51.434;5.984;2023-04-01T00:37:13;40.24;35.20;45.91;;
69620;Laerm;57654;51.434;5.984;2023-04-01T00:37:23;37.35;34.93;42.60;;
69620;Laerm;57654;51.434;5.984;2023-04-01T00:37:35;38.85;36.21;42.20;;
69620;Laerm;57654;51.434;5.984;2023-04-01T00:37:46;38.71;36.54;41.11;;
69620;Laerm;57654;51.434;5.984;2023-04-01T00:37:57;37.86;35.17;43.94;;
69620;Laerm;57654;51.434;5.984;2023-04-01T00:38:08;37.25;34.89;41.17;;
69620;Laerm;57654;51.434;5.984;2023-04-01T00:38:18;36.42;34.11;42.47;;
69620;Laerm;57654;51.434;5.984;2023-04-01T00:38:28;36.46;34.45;41.20;;
69620;Laerm;57654;51.434;5.984;2023-04-01T00:38:39;36.05;33.89;39.58;;
69620;Laerm;57654;51.434;5.984;2023-04-01T00:38:49;37.38;34.80;42.91;;
69620;Laerm;57654;51.434;5.984;2023-04-01T00:39:00;40.31;38.06;42.11;;
69620;Laerm;57654;51.434;5.984;2023-04-01T00:39:10;40.71;38.71;45.98;;
69620;Laerm;57654;51.434;5.984;2023-04-01T00:39:21;40.09;37.15;44.70;;
69620;Laerm;57654;51.434;5.984;2023-04-01T00:39:31;38.54;36.55;42.75;;
69620;Laerm;57654;51.434;5.984;2023-04-01T00:39:41;39.61;37.27;42.05;;
69620;Laerm;57654;51.434;5.984;2023-04-01T00:39:52;37.42;35.08;40.88;;
69620;Laerm;57654;51.434;5.984;2023-04-01T00:40:07;36.75;34.51;42.57;;
69620;Laerm;57654;51.434;5.984;2023-04-01T00:40:38;38.59;35.56;43.34;;
69620;Laerm;57654;51.434;5.984;2023-04-01T00:40:49;40.52;38.02;44.92;;
69620;Laerm;57654;51.434;5.984;2023-04-01T00:40:59;38.97;36.97;41.97;;
69620;Laerm;57654;51.434;5.984;2023-04-01T00:41:10;39.71;38.04;44.41;;
69620;Laerm;57654;51.434;5.984;2023-04-01T00:41:24;39.24;36.03;42.08;;
69620;Laerm;57654;51.434;5.984;2023-04-01T00:41:36;37.56;35.48;40.46;;
69620;Laerm;57654;51.434;5.984;2023-04-01T00:41:46;36.79;34.63;39.62;;
69620;Laerm;57654;51.434;5.984;2023-04-01T00:41:57;36.08;33.75;40.32;;
69620;Laerm;57654;51.434;5.984;2023-04-01T00:42:08;36.84;33.18;45.81;;
69620;Laerm;57654;51.434;5.984;2023-04-01T00:42:19;39.27;36.01;43.13;;
69620;Laerm;57654;51.434;5.984;2023-04-01T00:42:29;37.98;35.37;41.69;;
69620;Laerm;57654;51.434;5.984;2023-04-01T00:42:39;37.94;35.40;45.69;;
69620;Laerm;57654;51.434;5.984;2023-04-01T00:42:50;38.27;35.68;43.16;;
69620;Laerm;57654;51.434;5.984;2023-04-01T00:43:00;37.34;35.16;43.16;;
69620;Laerm;57654;51.434;5.984;2023-04-01T00:43:21;37.33;35.42;43.15;;
69620;Laerm;57654;51.434;5.984;2023-04-01T00:43:31;36.58;34.34;45.17;;
69620;Laerm;57654;51.434;5.984;2023-04-01T00:43:43;36.52;34.31;39.75;;
69620;Laerm;57654;51.434;5.984;2023-04-01T00:44:11;37.81;35.21;42.44;;
69620;Laerm;57654;51.434;5.984;2023-04-01T00:44:25;36.72;33.72;41.73;;
69620;Laerm;57654;51.434;5.984;2023-04-01T00:44:36;36.78;34.56;42.28;;
69620;Laerm;57654;51.434;5.984;2023-04-01T00:44:48;37.09;34.41;43.14;;
69620;Laerm;57654;51.434;5.984;2023-04-01T00:45:21;37.09;34.29;41.56;;
69620;Laerm;57654;51.434;5.984;2023-04-01T00:45:41;36.47;33.98;40.76;;
69620;Laerm;57654;51.434;5.984;2023-04-01T00:45:51;37.20;35.26;41.06;;
69620;Laerm;57654;51.434;5.984;2023-04-01T00:46:02;36.66;34.15;39.75;;
69620;Laerm;57654;51.434;5.984;2023-04-01T00:46:12;36.89;34.46;39.11;;
69620;Laerm;57654;51.434;5.984;2023-04-01T00:46:22;35.83;33.17;44.97;;
69620;Laerm;57654;51.434;5.984;2023-04-01T00:46:32;36.29;33.76;39.85;;
69620;Laerm;57654;51.434;5.984;2023-04-01T00:46:43;38.84;34.92;41.42;;
69620;Laerm;57654;51.434;5.984;2023-04-01T00:46:53;38.92;36.21;54.00;;
69620;Laerm;57654;51.434;5.984;2023-04-01T00:47:04;37.78;35.51;41.90;;
69620;Laerm;57654;51.434;5.984;2023-04-01T00:47:14;40.08;37.59;45.75;;
69620;Laerm;57654;51.434;5.984;2023-04-01T00:47:25;39.41;37.69;41.34;;
69620;Laerm;57654;51.434;5.984;2023-04-01T00:47:37;39.68;37.90;50.54;;
69620;Laerm;57654;51.434;5.984;2023-04-01T00:47:47;39.56;37.82;43.34;;
69620;Laerm;57654;51.434;5.984;2023-04-01T00:47:58;39.54;36.82;42.39;;
69620;Laerm;57654;51.434;5.984;2023-04-01T00:48:30;40.07;37.16;43.42;;
69620;Laerm;57654;51.434;5.984;2023-04-01T00:48:48;41.13;37.60;45.04;;
69620;Laerm;57654;51.434;5.984;2023-04-01T00:48:59;38.32;35.10;43.18;;
69620;Laerm;57654;51.434;5.984;2023-04-01T00:49:10;37.18;34.87;41.13;;
69620;Laerm;57654;51.434;5.984;2023-04-01T00:49:23;37.48;35.49;41.87;;
69620;Laerm;57654;51.434;5.984;2023-04-01T00:49:36;37.65;34.87;40.55;;
69620;Laerm;57654;51.434;5.984;2023-04-01T00:49:48;40.22;37.96;44.85;;
69620;Laerm;57654;51.434;5.984;2023-04-01T00:49:59;38.46;35.54;43.07;;
69620;Laerm;57654;51.434;5.984;2023-04-01T00:50:10;36.54;34.04;42.73;;
69620;Laerm;57654;51.434;5.984;2023-04-01T00:50:21;37.32;34.30;40.46;;
69620;Laerm;57654;51.434;5.984;2023-04-01T00:50:32;37.68;35.84;43.08;;
69620;Laerm;57654;51.434;5.984;2023-04-01T00:50:50;40.36;36.76;43.96;;
69620;Laerm;57654;51.434;5.984;2023-04-01T00:51:06;40.81;37.53;48.13;;
69620;Laerm;57654;51.434;5.984;2023-04-01T00:51:18;38.82;36.77;40.82;;
69620;Laerm;57654;51.434;5.984;2023-04-01T00:51:30;38.32;35.56;42.18;;
69620;Laerm;57654;51.434;5.984;2023-04-01T00:51:41;37.90;35.93;40.44;;
69620;Laerm;57654;51.434;5.984;2023-04-01T00:51:53;37.36;34.82;41.14;;
69620;Laerm;57654;51.434;5.984;2023-04-01T00:52:04;35.75;33.62;41.15;;
69620;Laerm;57654;51.434;5.984;2023-04-01T00:52:17;37.04;34.20;40.81;;
69620;Laerm;57654;51.434;5.984;2023-04-01T00:52:28;36.69;34.29;40.20;;
69620;Laerm;57654;51.434;5.984;2023-04-01T00:52:38;36.14;33.72;40.13;;
69620;Laerm;57654;51.434;5.984;2023-04-01T00:52:49;36.17;33.87;40.18;;
69620;Laerm;57654;51.434;5.984;2023-04-01T00:53:00;35.90;33.50;40.08;;
69620;Laerm;57654;51.434;5.984;2023-04-01T00:53:11;36.28;34.35;39.83;;
69620;Laerm;57654;51.434;5.984;2023-04-01T00:53:21;35.22;33.06;37.64;;
69620;Laerm;57654;51.434;5.984;2023-04-01T00:53:33;36.11;33.26;41.79;;
69620;Laerm;57654;51.434;5.984;2023-04-01T00:53:48;36.50;33.54;40.35;;
69620;Laerm;57654;51.434;5.984;2023-04-01T00:54:00;36.47;34.12;41.25;;
69620;Laerm;57654;51.434;5.984;2023-04-01T00:54:13;36.89;34.14;40.40;;
69620;Laerm;57654;51.434;5.984;2023-04-01T00:54:24;35.37;32.97;42.42;;
69620;Laerm;57654;51.434;5.984;2023-04-01T00:54:35;35.83;33.57;38.97;;
69620;Laerm;57654;51.434;5.984;2023-04-01T00:54:47;36.08;33.25;43.27;;
69620;Laerm;57654;51.434;5.984;2023-04-01T00:54:58;36.09;33.30;41.68;;
69620;Laerm;57654;51.434;5.984;2023-04-01T00:55:11;38.09;34.99;41.03;;
69620;Laerm;57654;51.434;5.984;2023-04-01T00:55:23;38.74;35.76;42.21;;
69620;Laerm;57654;51.434;5.984;2023-04-01T00:55:34;38.75;36.61;41.10;;
69620;Laerm;57654;51.434;5.984;2023-04-01T00:55:49;41.30;38.79;44.16;;
69620;Laerm;57654;51.434;5.984;2023-04-01T00:56:01;41.44;38.55;43.64;;
69620;Laerm;57654;51.434;5.984;2023-04-01T00:56:14;41.59;39.32;43.74;;
69620;Laerm;57654;51.434;5.984;2023-04-01T00:56:26;41.24;38.47;43.83;;
69620;Laerm;57654;51.434;5.984;2023-04-01T00:56:41;40.33;38.27;46.87;;
69620;Laerm;57654;51.434;5.984;2023-04-01T00:57:07;46.97;39.05;51.91;;
69620;Laerm;57654;51.434;5.984;2023-04-01T00:57:21;50.51;48.46;52.85;;
69620;Laerm;57654;51.434;5.984;2023-04-01T00:57:36;47.16;36.03;51.41;;
69620;Laerm;57654;51.434;5.984;2023-04-01T00:57:47;36.13;33.78;42.20;;
69620;Laerm;57654;51.434;5.984;2023-04-01T00:57:59;35.67;33.47;38.75;;
69620;Laerm;57654;51.434;5.984;2023-04-01T00:58:11;35.54;33.44;40.54;;
69620;Laerm;57654;51.434;5.984;2023-04-01T00:58:24;37.86;33.50;41.52;;
69620;Laerm;57654;51.434;5.984;2023-04-01T00:58:36;40.32;37.73;42.58;;
69620;Laerm;57654;51.434;5.984;2023-04-01T00:58:49;39.38;37.35;43.32;;
69620;Laerm;57654;51.434;5.984;2023-04-01T00:59:01;40.28;37.73;42.37;;
69620;Laerm;57654;51.434;5.984;2023-04-01T00:59:16;38.43;35.97;41.25;;
69620;Laerm;57654;51.434;5.984;2023-04-01T00:59:32;39.60;34.76;46.63;;
69620;Laerm;57654;51.434;5.984;2023-04-01T00:59:45;47.75;44.45;49.92;;
69620;Laerm;57654;51.434;5.984;2023-04-01T00:59:57;46.98;41.09;50.63;;
69620;Laerm;57654;51.434;5.984;2023-04-01T01:00:09;40.19;37.13;43.07;;
69620;Laerm;57654;51.434;5.984;2023-04-01T01:00:20;37.34;34.62;41.80;;
69620;Laerm;57654;51.434;5.984;2023-04-01T01:00:31;36.71;34.59;41.84;;
69620;Laerm;57654;51.434;5.984;2023-04-01T01:00:42;38.62;35.17;40.94;;
69620;Laerm;57654;51.434;5.984;2023-04-01T01:00:52;38.92;36.21;42.21;;
69620;Laerm;57654;51.434;5.984;2023-04-01T01:01:05;37.90;35.46;42.16;;
69620;Laerm;57654;51.434;5.984;2023-04-01T01:01:16;39.21;36.55;42.16;;
69620;Laerm;57654;51.434;5.984;2023-04-01T01:01:26;43.09;40.38;45.58;;
69620;Laerm;57654;51.434;5.984;2023-04-01T01:01:37;40.41;37.26;43.59;;
69620;Laerm;57654;51.434;5.984;2023-04-01T01:01:48;38.00;35.80;42.88;;
69620;Laerm;57654;51.434;5.984;2023-04-01T01:01:58;39.79;37.13;42.93;;
69620;Laerm;57654;51.434;5.984;2023-04-01T01:02:11;40.14;38.07;42.49;;
69620;Laerm;57654;51.434;5.984;2023-04-01T01:02:22;40.48;38.36;46.38;;
69620;Laerm;57654;51.434;5.984;2023-04-01T01:02:32;38.06;35.77;40.28;;
69620;Laerm;57654;51.434;5.984;2023-04-01T01:02:43;37.96;35.10;41.63;;
69620;Laerm;57654;51.434;5.984;2023-04-01T01:02:54;42.28;38.35;60.31;;
69620;Laerm;57654;51.434;5.984;2023-04-01T01:03:05;40.18;38.30;42.61;;
69620;Laerm;57654;51.434;5.984;2023-04-01T01:03:15;39.16;36.82;42.20;;